sensor_id;sensor_type;location;lat;lon;timestamp;P1;durP1;ratioP1;P2;durP2;ratioP2
4786;SDS011;62338;48.832;9.422;2023-02-28T00:00:04;3.40;;;1.80;;
4786;SDS011;62338;48.832;9.422;2023-02-28T00:02:11;3.80;;;2.00;;
4786;SDS011;62338;48.832;9.422;2023-02-28T00:04:13;3.97;;;2.20;;
4786;SDS011;62338;48.832;9.422;2023-02-28T00:06:15;3.87;;;2.00;;
4786;SDS011;62338;48.832;9.422;2023-02-28T00:08:17;2.87;;;2.07;;
4786;SDS011;62338;48.832;9.422;2023-02-28T00:10:19;5.10;;;2.07;;
4786;SDS011;62338;48.832;9.422;2023-02-28T00:12:27;2.63;;;1.90;;
4786;SDS011;62338;48.832;9.422;2023-02-28T00:14:29;4.17;;;2.30;;
4786;SDS011;62338;48.832;9.422;2023-02-28T00:16:31;3.43;;;2.20;;
4786;SDS011;62338;48.832;9.422;2023-02-28T00:18:33;3.33;;;2.30;;
4786;SDS011;62338;48.832;9.422;2023-02-28T00:20:35;5.37;;;2.37;;
4786;SDS011;62338;48.832;9.422;2023-02-28T00:22:40;3.40;;;1.90;;
4786;SDS011;62338;48.832;9.422;2023-02-28T00:24:44;4.80;;;2.17;;
4786;SDS011;62338;48.832;9.422;2023-02-28T00:26:46;3.10;;;2.43;;
4786;SDS011;62338;48.832;9.422;2023-02-28T00:28:48;3.30;;;2.17;;
4786;SDS011;62338;48.832;9.422;2023-02-28T00:30:50;4.23;;;2.30;;
4786;SDS011;62338;48.832;9.422;2023-02-28T00:32:52;4.90;;;2.00;;
4786;SDS011;62338;48.832;9.422;2023-02-28T00:34:54;3.33;;;2.17;;
4786;SDS011;62338;48.832;9.422;2023-02-28T00:36:56;4.60;;;2.27;;
4786;SDS011;62338;48.832;9.422;2023-02-28T00:38:58;4.73;;;2.70;;
4786;SDS011;62338;48.832;9.422;2023-02-28T00:41:00;4.93;;;2.20;;
4786;SDS011;62338;48.832;9.422;2023-02-28T00:43:06;4.10;;;2.73;;
4786;SDS011;62338;48.832;9.422;2023-02-28T00:45:07;4.57;;;2.40;;
4786;SDS011;62338;48.832;9.422;2023-02-28T00:47:10;4.37;;;2.57;;
4786;SDS011;62338;48.832;9.422;2023-02-28T00:49:12;4.07;;;2.17;;
4786;SDS011;62338;48.832;9.422;2023-02-28T00:51:13;3.53;;;2.40;;
4786;SDS011;62338;48.832;9.422;2023-02-28T00:53:15;5.73;;;2.33;;
4786;SDS011;62338;48.832;9.422;2023-02-28T00:55:17;5.23;;;2.40;;
4786;SDS011;62338;48.832;9.422;2023-02-28T00:57:19;3.50;;;2.33;;
4786;SDS011;62338;48.832;9.422;2023-02-28T00:59:21;3.10;;;2.17;;
4786;SDS011;62338;48.832;9.422;2023-02-28T01:01:23;4.10;;;2.13;;
4786;SDS011;62338;48.832;9.422;2023-02-28T01:03:25;4.50;;;2.67;;
4786;SDS011;62338;48.832;9.422;2023-02-28T01:05:26;4.93;;;2.77;;
4786;SDS011;62338;48.832;9.422;2023-02-28T01:07:28;4.90;;;2.90;;
4786;SDS011;62338;48.832;9.422;2023-02-28T01:09:30;3.70;;;2.50;;
4786;SDS011;62338;48.832;9.422;2023-02-28T01:11:32;3.70;;;2.73;;
4786;SDS011;62338;48.832;9.422;2023-02-28T01:13:35;4.23;;;3.00;;
4786;SDS011;62338;48.832;9.422;2023-02-28T01:15:45;4.40;;;2.50;;
4786;SDS011;62338;48.832;9.422;2023-02-28T01:17:52;4.50;;;2.50;;
4786;SDS011;62338;48.832;9.422;2023-02-28T01:19:54;4.93;;;2.73;;
4786;SDS011;62338;48.832;9.422;2023-02-28T01:21:57;4.00;;;2.70;;
4786;SDS011;62338;48.832;9.422;2023-02-28T01:24:03;4.20;;;2.87;;
4786;SDS011;62338;48.832;9.422;2023-02-28T01:26:06;3.40;;;2.53;;
4786;SDS011;62338;48.832;9.422;2023-02-28T01:28:09;6.27;;;2.77;;
4786;SDS011;62338;48.832;9.422;2023-02-28T01:30:11;3.53;;;2.80;;
4786;SDS011;62338;48.832;9.422;2023-02-28T01:32:13;4.70;;;2.73;;
4786;SDS011;62338;48.832;9.422;2023-02-28T01:34:15;4.17;;;2.90;;
4786;SDS011;62338;48.832;9.422;2023-02-28T01:36:18;2.60;;;2.33;;
4786;SDS011;62338;48.832;9.422;2023-02-28T01:38:21;4.47;;;3.07;;
4786;SDS011;62338;48.832;9.422;2023-02-28T01:40:23;4.10;;;2.70;;
4786;SDS011;62338;48.832;9.422;2023-02-28T01:42:25;5.60;;;3.03;;
4786;SDS011;62338;48.832;9.422;2023-02-28T01:47:03;6.87;;;3.20;;
4786;SDS011;62338;48.832;9.422;2023-02-28T01:49:07;4.40;;;2.90;;
4786;SDS011;62338;48.832;9.422;2023-02-28T01:51:21;5.80;;;3.10;;
4786;SDS011;62338;48.832;9.422;2023-02-28T01:53:37;5.53;;;3.00;;
4786;SDS011;62338;48.832;9.422;2023-02-28T01:55:45;3.60;;;2.80;;
4786;SDS011;62338;48.832;9.422;2023-02-28T01:57:50;3.77;;;2.80;;
4786;SDS011;62338;48.832;9.422;2023-02-28T02:00:00;5.17;;;3.43;;
4786;SDS011;62338;48.832;9.422;2023-02-28T02:02:06;4.03;;;3.03;;
4786;SDS011;62338;48.832;9.422;2023-02-28T02:04:09;4.77;;;3.33;;
4786;SDS011;62338;48.832;9.422;2023-02-28T02:06:10;3.73;;;2.83;;
4786;SDS011;62338;48.832;9.422;2023-02-28T02:08:19;3.60;;;3.00;;
4786;SDS011;62338;48.832;9.422;2023-02-28T02:10:33;6.20;;;3.10;;
4786;SDS011;62338;48.832;9.422;2023-02-28T02:12:58;8.57;;;2.97;;
4786;SDS011;62338;48.832;9.422;2023-02-28T02:15:57;4.10;;;2.97;;
4786;SDS011;62338;48.832;9.422;2023-02-28T02:17:56;4.63;;;2.90;;
4786;SDS011;62338;48.832;9.422;2023-02-28T02:20:22;5.47;;;3.10;;
4786;SDS011;62338;48.832;9.422;2023-02-28T02:32:19;4.67;;;3.57;;
4786;SDS011;62338;48.832;9.422;2023-02-28T02:34:41;4.20;;;3.33;;
4786;SDS011;62338;48.832;9.422;2023-02-28T02:39:04;5.90;;;3.67;;
4786;SDS011;62338;48.832;9.422;2023-02-28T02:41:19;3.87;;;3.10;;
4786;SDS011;62338;48.832;9.422;2023-02-28T02:44:30;3.83;;;3.03;;
4786;SDS011;62338;48.832;9.422;2023-02-28T02:46:17;4.40;;;3.10;;
4786;SDS011;62338;48.832;9.422;2023-02-28T02:48:26;5.83;;;3.57;;
4786;SDS011;62338;48.832;9.422;2023-02-28T02:50:36;4.23;;;3.17;;
4786;SDS011;62338;48.832;9.422;2023-02-28T02:52:52;4.60;;;3.47;;
4786;SDS011;62338;48.832;9.422;2023-02-28T02:54:58;6.23;;;2.97;;
4786;SDS011;62338;48.832;9.422;2023-02-28T02:57:03;6.70;;;3.77;;
4786;SDS011;62338;48.832;9.422;2023-02-28T02:59:11;6.93;;;3.67;;
4786;SDS011;62338;48.832;9.422;2023-02-28T03:01:18;4.77;;;3.50;;
4786;SDS011;62338;48.832;9.422;2023-02-28T03:03:29;4.30;;;3.17;;
4786;SDS011;62338;48.832;9.422;2023-02-28T03:05:35;5.13;;;3.37;;
4786;SDS011;62338;48.832;9.422;2023-02-28T03:07:47;4.80;;;3.40;;
4786;SDS011;62338;48.832;9.422;2023-02-28T03:09:50;5.30;;;3.80;;
4786;SDS011;62338;48.832;9.422;2023-02-28T03:11:56;5.40;;;3.57;;
4786;SDS011;62338;48.832;9.422;2023-02-28T03:23:45;5.57;;;3.67;;
4786;SDS011;62338;48.832;9.422;2023-02-28T03:26:02;5.30;;;3.70;;
4786;SDS011;62338;48.832;9.422;2023-02-28T03:28:17;5.43;;;3.93;;
4786;SDS011;62338;48.832;9.422;2023-02-28T03:30:32;7.57;;;4.00;;
4786;SDS011;62338;48.832;9.422;2023-02-28T03:32:50;5.50;;;4.53;;
4786;SDS011;62338;48.832;9.422;2023-02-28T03:35:09;4.30;;;3.00;;
4786;SDS011;62338;48.832;9.422;2023-02-28T03:37:23;6.80;;;4.13;;
4786;SDS011;62338;48.832;9.422;2023-02-28T03:39:28;9.90;;;3.77;;
4786;SDS011;62338;48.832;9.422;2023-02-28T03:43:50;6.43;;;4.00;;
4786;SDS011;62338;48.832;9.422;2023-02-28T03:46:18;10.30;;;4.47;;
4786;SDS011;62338;48.832;9.422;2023-02-28T03:48:32;6.23;;;4.03;;
4786;SDS011;62338;48.832;9.422;2023-02-28T03:50:41;6.50;;;3.90;;
4786;SDS011;62338;48.832;9.422;2023-02-28T03:53:32;5.10;;;3.60;;
4786;SDS011;62338;48.832;9.422;2023-02-28T03:55:13;4.83;;;3.50;;
4786;SDS011;62338;48.832;9.422;2023-02-28T03:59:29;5.13;;;3.50;;
4786;SDS011;62338;48.832;9.422;2023-02-28T04:01:39;6.90;;;4.37;;
4786;SDS011;62338;48.832;9.422;2023-02-28T04:03:46;7.83;;;4.90;;
4786;SDS011;62338;48.832;9.422;2023-02-28T04:05:52;6.80;;;4.20;;
4786;SDS011;62338;48.832;9.422;2023-02-28T04:08:05;5.23;;;4.00;;
4786;SDS011;62338;48.832;9.422;2023-02-28T04:10:08;5.70;;;3.87;;
4786;SDS011;62338;48.832;9.422;2023-02-28T04:12:11;6.30;;;4.20;;
4786;SDS011;62338;48.832;9.422;2023-02-28T04:14:13;6.57;;;4.37;;
4786;SDS011;62338;48.832;9.422;2023-02-28T04:16:15;5.60;;;3.80;;
4786;SDS011;62338;48.832;9.422;2023-02-28T04:18:34;4.87;;;3.60;;
4786;SDS011;62338;48.832;9.422;2023-02-28T04:20:36;5.60;;;4.47;;
4786;SDS011;62338;48.832;9.422;2023-02-28T04:22:37;4.50;;;3.63;;
4786;SDS011;62338;48.832;9.422;2023-02-28T04:24:39;6.10;;;3.80;;
4786;SDS011;62338;48.832;9.422;2023-02-28T04:26:45;5.07;;;3.40;;
4786;SDS011;62338;48.832;9.422;2023-02-28T04:28:49;5.43;;;3.83;;
4786;SDS011;62338;48.832;9.422;2023-02-28T04:30:55;7.77;;;4.80;;
4786;SDS011;62338;48.832;9.422;2023-02-28T04:33:01;7.57;;;4.60;;
4786;SDS011;62338;48.832;9.422;2023-02-28T04:35:03;8.80;;;4.10;;
4786;SDS011;62338;48.832;9.422;2023-02-28T04:37:05;7.10;;;4.53;;
4786;SDS011;62338;48.832;9.422;2023-02-28T04:39:14;5.67;;;4.17;;
4786;SDS011;62338;48.832;9.422;2023-02-28T04:41:18;6.00;;;4.17;;
4786;SDS011;62338;48.832;9.422;2023-02-28T04:43:20;5.77;;;4.53;;
4786;SDS011;62338;48.832;9.422;2023-02-28T04:45:21;5.97;;;4.07;;
4786;SDS011;62338;48.832;9.422;2023-02-28T04:47:23;5.60;;;4.60;;
4786;SDS011;62338;48.832;9.422;2023-02-28T04:49:25;5.93;;;4.30;;
4786;SDS011;62338;48.832;9.422;2023-02-28T04:51:27;6.10;;;4.27;;
4786;SDS011;62338;48.832;9.422;2023-02-28T04:53:29;5.80;;;4.43;;
4786;SDS011;62338;48.832;9.422;2023-02-28T04:55:31;6.23;;;4.47;;
4786;SDS011;62338;48.832;9.422;2023-02-28T04:57:33;7.40;;;4.67;;
4786;SDS011;62338;48.832;9.422;2023-02-28T04:59:35;8.30;;;4.20;;
4786;SDS011;62338;48.832;9.422;2023-02-28T05:01:37;6.80;;;4.63;;
4786;SDS011;62338;48.832;9.422;2023-02-28T05:03:39;6.57;;;4.77;;
4786;SDS011;62338;48.832;9.422;2023-02-28T05:05:44;6.33;;;4.57;;
4786;SDS011;62338;48.832;9.422;2023-02-28T05:07:46;8.07;;;4.50;;
4786;SDS011;62338;48.832;9.422;2023-02-28T05:09:48;7.90;;;4.97;;
4786;SDS011;62338;48.832;9.422;2023-02-28T05:11:49;6.13;;;4.50;;
4786;SDS011;62338;48.832;9.422;2023-02-28T05:13:51;7.00;;;4.70;;
4786;SDS011;62338;48.832;9.422;2023-02-28T05:15:55;7.33;;;5.20;;
4786;SDS011;62338;48.832;9.422;2023-02-28T05:17:57;5.40;;;4.03;;
4786;SDS011;62338;48.832;9.422;2023-02-28T05:19:59;8.30;;;4.80;;
4786;SDS011;62338;48.832;9.422;2023-02-28T05:22:15;6.30;;;4.50;;
4786;SDS011;62338;48.832;9.422;2023-02-28T05:24:20;6.60;;;4.97;;
4786;SDS011;62338;48.832;9.422;2023-02-28T05:26:25;5.60;;;3.80;;
4786;SDS011;62338;48.832;9.422;2023-02-28T05:28:27;7.83;;;5.20;;
4786;SDS011;62338;48.832;9.422;2023-02-28T05:30:29;9.93;;;5.10;;
4786;SDS011;62338;48.832;9.422;2023-02-28T05:32:32;5.80;;;4.33;;
4786;SDS011;62338;48.832;9.422;2023-02-28T05:34:35;6.83;;;5.00;;
4786;SDS011;62338;48.832;9.422;2023-02-28T05:36:38;11.80;;;4.97;;
4786;SDS011;62338;48.832;9.422;2023-02-28T05:38:40;7.97;;;5.20;;
4786;SDS011;62338;48.832;9.422;2023-02-28T05:40:42;6.57;;;4.80;;
4786;SDS011;62338;48.832;9.422;2023-02-28T05:42:44;7.60;;;5.30;;
4786;SDS011;62338;48.832;9.422;2023-02-28T05:44:46;7.90;;;5.90;;
4786;SDS011;62338;48.832;9.422;2023-02-28T05:46:48;9.07;;;5.27;;
4786;SDS011;62338;48.832;9.422;2023-02-28T05:48:49;9.03;;;5.10;;
4786;SDS011;62338;48.832;9.422;2023-02-28T05:50:51;7.80;;;5.00;;
4786;SDS011;62338;48.832;9.422;2023-02-28T05:52:53;7.73;;;5.10;;
4786;SDS011;62338;48.832;9.422;2023-02-28T05:54:55;8.63;;;5.47;;
4786;SDS011;62338;48.832;9.422;2023-02-28T05:56:57;7.53;;;5.23;;
4786;SDS011;62338;48.832;9.422;2023-02-28T05:58:59;7.50;;;5.27;;
4786;SDS011;62338;48.832;9.422;2023-02-28T06:01:18;7.37;;;4.97;;
4786;SDS011;62338;48.832;9.422;2023-02-28T06:03:26;7.40;;;4.70;;
4786;SDS011;62338;48.832;9.422;2023-02-28T06:05:28;8.10;;;5.90;;
4786;SDS011;62338;48.832;9.422;2023-02-28T06:07:30;6.80;;;4.87;;
4786;SDS011;62338;48.832;9.422;2023-02-28T06:09:31;9.13;;;5.67;;
4786;SDS011;62338;48.832;9.422;2023-02-28T06:11:33;7.60;;;4.80;;
4786;SDS011;62338;48.832;9.422;2023-02-28T06:13:35;8.00;;;5.10;;
4786;SDS011;62338;48.832;9.422;2023-02-28T06:15:37;7.33;;;4.70;;
4786;SDS011;62338;48.832;9.422;2023-02-28T06:17:40;10.50;;;5.60;;
4786;SDS011;62338;48.832;9.422;2023-02-28T06:19:42;12.93;;;5.63;;
4786;SDS011;62338;48.832;9.422;2023-02-28T06:21:44;6.70;;;5.00;;
4786;SDS011;62338;48.832;9.422;2023-02-28T06:23:48;8.07;;;5.80;;
4786;SDS011;62338;48.832;9.422;2023-02-28T06:25:50;6.97;;;4.80;;
4786;SDS011;62338;48.832;9.422;2023-02-28T06:27:54;7.83;;;5.30;;
4786;SDS011;62338;48.832;9.422;2023-02-28T06:29:57;6.73;;;4.90;;
4786;SDS011;62338;48.832;9.422;2023-02-28T06:31:59;6.70;;;5.00;;
4786;SDS011;62338;48.832;9.422;2023-02-28T06:34:01;8.17;;;5.33;;
4786;SDS011;62338;48.832;9.422;2023-02-28T06:36:03;8.17;;;5.37;;
4786;SDS011;62338;48.832;9.422;2023-02-28T06:38:05;8.77;;;5.13;;
4786;SDS011;62338;48.832;9.422;2023-02-28T06:40:08;8.70;;;5.87;;
4786;SDS011;62338;48.832;9.422;2023-02-28T06:42:11;11.43;;;6.10;;
4786;SDS011;62338;48.832;9.422;2023-02-28T06:44:14;9.53;;;6.00;;
4786;SDS011;62338;48.832;9.422;2023-02-28T06:46:17;9.07;;;5.80;;
4786;SDS011;62338;48.832;9.422;2023-02-28T06:48:19;9.47;;;5.57;;
4786;SDS011;62338;48.832;9.422;2023-02-28T06:50:21;7.60;;;5.60;;
4786;SDS011;62338;48.832;9.422;2023-02-28T06:52:22;8.77;;;5.70;;
4786;SDS011;62338;48.832;9.422;2023-02-28T06:54:24;14.20;;;6.43;;
4786;SDS011;62338;48.832;9.422;2023-02-28T06:56:26;8.53;;;5.87;;
4786;SDS011;62338;48.832;9.422;2023-02-28T06:58:28;8.60;;;5.60;;
4786;SDS011;62338;48.832;9.422;2023-02-28T07:00:29;8.80;;;6.47;;
4786;SDS011;62338;48.832;9.422;2023-02-28T07:02:31;8.30;;;5.37;;
4786;SDS011;62338;48.832;9.422;2023-02-28T07:04:33;12.10;;;6.37;;
4786;SDS011;62338;48.832;9.422;2023-02-28T07:06:35;10.23;;;6.53;;
4786;SDS011;62338;48.832;9.422;2023-02-28T07:08:37;9.50;;;6.43;;
4786;SDS011;62338;48.832;9.422;2023-02-28T07:10:38;9.53;;;6.40;;
4786;SDS011;62338;48.832;9.422;2023-02-28T07:12:41;8.57;;;6.30;;
4786;SDS011;62338;48.832;9.422;2023-02-28T07:14:42;8.77;;;5.90;;
4786;SDS011;62338;48.832;9.422;2023-02-28T07:16:44;9.40;;;6.10;;
4786;SDS011;62338;48.832;9.422;2023-02-28T07:18:47;8.03;;;5.97;;
4786;SDS011;62338;48.832;9.422;2023-02-28T07:20:48;8.30;;;6.33;;
4786;SDS011;62338;48.832;9.422;2023-02-28T07:22:50;10.20;;;6.20;;
4786;SDS011;62338;48.832;9.422;2023-02-28T07:24:57;9.80;;;6.13;;
4786;SDS011;62338;48.832;9.422;2023-02-28T07:26:59;9.27;;;5.93;;
4786;SDS011;62338;48.832;9.422;2023-02-28T07:29:01;8.70;;;6.10;;
4786;SDS011;62338;48.832;9.422;2023-02-28T07:31:06;8.47;;;6.27;;
4786;SDS011;62338;48.832;9.422;2023-02-28T07:33:08;8.67;;;6.67;;
4786;SDS011;62338;48.832;9.422;2023-02-28T07:35:10;7.60;;;5.33;;
4786;SDS011;62338;48.832;9.422;2023-02-28T07:37:12;9.20;;;5.60;;
4786;SDS011;62338;48.832;9.422;2023-02-28T07:39:14;8.30;;;6.23;;
4786;SDS011;62338;48.832;9.422;2023-02-28T07:41:16;8.03;;;5.97;;
4786;SDS011;62338;48.832;9.422;2023-02-28T07:43:19;12.90;;;6.00;;
4786;SDS011;62338;48.832;9.422;2023-02-28T07:45:21;9.97;;;6.40;;
4786;SDS011;62338;48.832;9.422;2023-02-28T07:47:23;11.90;;;5.93;;
4786;SDS011;62338;48.832;9.422;2023-02-28T07:49:25;9.97;;;6.60;;
4786;SDS011;62338;48.832;9.422;2023-02-28T07:51:27;8.40;;;6.60;;
4786;SDS011;62338;48.832;9.422;2023-02-28T07:53:29;9.87;;;7.03;;
4786;SDS011;62338;48.832;9.422;2023-02-28T07:55:31;8.50;;;6.40;;
4786;SDS011;62338;48.832;9.422;2023-02-28T07:57:33;9.30;;;6.57;;
4786;SDS011;62338;48.832;9.422;2023-02-28T07:59:35;9.17;;;5.93;;
4786;SDS011;62338;48.832;9.422;2023-02-28T08:01:37;8.23;;;6.23;;
4786;SDS011;62338;48.832;9.422;2023-02-28T08:03:39;7.93;;;6.20;;
4786;SDS011;62338;48.832;9.422;2023-02-28T08:05:41;9.43;;;6.40;;
4786;SDS011;62338;48.832;9.422;2023-02-28T08:07:43;7.60;;;5.57;;
4786;SDS011;62338;48.832;9.422;2023-02-28T08:09:45;9.00;;;6.50;;
4786;SDS011;62338;48.832;9.422;2023-02-28T08:11:47;10.97;;;7.00;;
4786;SDS011;62338;48.832;9.422;2023-02-28T08:13:48;9.70;;;5.73;;
4786;SDS011;62338;48.832;9.422;2023-02-28T08:15:50;9.93;;;5.80;;
4786;SDS011;62338;48.832;9.422;2023-02-28T08:17:52;9.67;;;6.30;;
4786;SDS011;62338;48.832;9.422;2023-02-28T08:19:54;8.43;;;6.70;;
4786;SDS011;62338;48.832;9.422;2023-02-28T08:21:56;7.50;;;6.10;;
4786;SDS011;62338;48.832;9.422;2023-02-28T08:23:58;7.80;;;6.07;;
4786;SDS011;62338;48.832;9.422;2023-02-28T08:26:00;12.13;;;6.77;;
4786;SDS011;62338;48.832;9.422;2023-02-28T08:28:02;7.37;;;5.80;;
4786;SDS011;62338;48.832;9.422;2023-02-28T08:30:04;8.23;;;6.50;;
4786;SDS011;62338;48.832;9.422;2023-02-28T08:32:07;9.80;;;6.30;;
4786;SDS011;62338;48.832;9.422;2023-02-28T08:34:23;8.30;;;6.00;;
4786;SDS011;62338;48.832;9.422;2023-02-28T08:36:25;10.30;;;6.40;;
4786;SDS011;62338;48.832;9.422;2023-02-28T08:38:29;10.97;;;7.13;;
4786;SDS011;62338;48.832;9.422;2023-02-28T08:40:31;8.43;;;6.30;;
4786;SDS011;62338;48.832;9.422;2023-02-28T08:42:33;10.10;;;6.27;;
4786;SDS011;62338;48.832;9.422;2023-02-28T08:44:35;10.40;;;6.60;;
4786;SDS011;62338;48.832;9.422;2023-02-28T08:46:37;9.80;;;6.80;;
4786;SDS011;62338;48.832;9.422;2023-02-28T08:48:39;8.67;;;6.03;;
4786;SDS011;62338;48.832;9.422;2023-02-28T08:50:41;10.20;;;6.43;;
4786;SDS011;62338;48.832;9.422;2023-02-28T08:52:45;13.33;;;7.40;;
4786;SDS011;62338;48.832;9.422;2023-02-28T08:54:47;9.70;;;5.50;;
4786;SDS011;62338;48.832;9.422;2023-02-28T08:56:49;7.40;;;6.33;;
4786;SDS011;62338;48.832;9.422;2023-02-28T08:58:51;8.23;;;6.27;;
4786;SDS011;62338;48.832;9.422;2023-02-28T09:00:56;8.67;;;6.63;;
4786;SDS011;62338;48.832;9.422;2023-02-28T09:02:58;9.30;;;6.57;;
4786;SDS011;62338;48.832;9.422;2023-02-28T09:05:00;9.20;;;7.07;;
4786;SDS011;62338;48.832;9.422;2023-02-28T09:07:02;7.67;;;5.40;;
4786;SDS011;62338;48.832;9.422;2023-02-28T09:09:04;9.97;;;6.70;;
4786;SDS011;62338;48.832;9.422;2023-02-28T09:11:08;11.80;;;6.57;;
4786;SDS011;62338;48.832;9.422;2023-02-28T09:13:11;8.80;;;6.50;;
4786;SDS011;62338;48.832;9.422;2023-02-28T09:15:13;10.60;;;6.90;;
4786;SDS011;62338;48.832;9.422;2023-02-28T09:17:15;9.07;;;6.73;;
4786;SDS011;62338;48.832;9.422;2023-02-28T09:19:17;8.33;;;6.30;;
4786;SDS011;62338;48.832;9.422;2023-02-28T09:21:19;8.43;;;6.53;;
4786;SDS011;62338;48.832;9.422;2023-02-28T09:23:21;10.00;;;6.73;;
4786;SDS011;62338;48.832;9.422;2023-02-28T09:25:23;9.57;;;6.30;;
4786;SDS011;62338;48.832;9.422;2023-02-28T09:27:25;11.23;;;6.63;;
4786;SDS011;62338;48.832;9.422;2023-02-28T09:29:26;8.17;;;4.70;;
4786;SDS011;62338;48.832;9.422;2023-02-28T09:31:28;9.83;;;6.90;;
4786;SDS011;62338;48.832;9.422;2023-02-28T09:33:30;10.50;;;6.40;;
4786;SDS011;62338;48.832;9.422;2023-02-28T09:35:32;11.07;;;6.10;;
4786;SDS011;62338;48.832;9.422;2023-02-28T09:37:34;8.93;;;6.30;;
4786;SDS011;62338;48.832;9.422;2023-02-28T09:39:36;9.53;;;6.27;;
4786;SDS011;62338;48.832;9.422;2023-02-28T09:41:38;8.40;;;6.40;;
4786;SDS011;62338;48.832;9.422;2023-02-28T09:43:53;9.67;;;6.30;;
4786;SDS011;62338;48.832;9.422;2023-02-28T09:45:59;8.87;;;6.60;;
4786;SDS011;62338;48.832;9.422;2023-02-28T09:48:18;9.20;;;6.73;;
4786;SDS011;62338;48.832;9.422;2023-02-28T09:52:37;11.20;;;6.97;;
4786;SDS011;62338;48.832;9.422;2023-02-28T09:54:39;9.90;;;6.87;;
4786;SDS011;62338;48.832;9.422;2023-02-28T09:56:41;11.50;;;6.63;;
4786;SDS011;62338;48.832;9.422;2023-02-28T10:00:52;11.10;;;6.67;;
4786;SDS011;62338;48.832;9.422;2023-02-28T10:05:27;10.63;;;7.53;;
4786;SDS011;62338;48.832;9.422;2023-02-28T10:10:19;9.10;;;7.00;;
4786;SDS011;62338;48.832;9.422;2023-02-28T10:12:25;10.43;;;6.87;;
4786;SDS011;62338;48.832;9.422;2023-02-28T10:14:29;9.30;;;6.97;;
4786;SDS011;62338;48.832;9.422;2023-02-28T10:17:10;10.10;;;6.97;;
4786;SDS011;62338;48.832;9.422;2023-02-28T10:19:09;9.87;;;6.70;;
4786;SDS011;62338;48.832;9.422;2023-02-28T10:21:26;11.93;;;6.93;;
4786;SDS011;62338;48.832;9.422;2023-02-28T10:23:34;9.17;;;7.10;;
4786;SDS011;62338;48.832;9.422;2023-02-28T10:25:37;10.07;;;7.30;;
4786;SDS011;62338;48.832;9.422;2023-02-28T10:27:39;11.50;;;7.43;;
4786;SDS011;62338;48.832;9.422;2023-02-28T10:29:43;9.10;;;6.63;;
4786;SDS011;62338;48.832;9.422;2023-02-28T10:31:46;10.67;;;7.50;;
4786;SDS011;62338;48.832;9.422;2023-02-28T10:33:48;9.77;;;7.10;;
4786;SDS011;62338;48.832;9.422;2023-02-28T10:35:50;10.53;;;7.17;;
4786;SDS011;62338;48.832;9.422;2023-02-28T10:37:53;10.33;;;7.00;;
4786;SDS011;62338;48.832;9.422;2023-02-28T10:39:57;14.17;;;8.17;;
4786;SDS011;62338;48.832;9.422;2023-02-28T10:41:59;12.50;;;7.37;;
4786;SDS011;62338;48.832;9.422;2023-02-28T10:46:22;11.50;;;6.53;;
4786;SDS011;62338;48.832;9.422;2023-02-28T10:48:32;9.27;;;6.50;;
4786;SDS011;62338;48.832;9.422;2023-02-28T10:52:53;11.03;;;7.30;;
4786;SDS011;62338;48.832;9.422;2023-02-28T10:55:13;10.93;;;7.07;;
4786;SDS011;62338;48.832;9.422;2023-02-28T10:57:30;12.27;;;7.20;;
4786;SDS011;62338;48.832;9.422;2023-02-28T10:59:32;10.33;;;7.40;;
4786;SDS011;62338;48.832;9.422;2023-02-28T11:03:36;9.13;;;6.30;;
4786;SDS011;62338;48.832;9.422;2023-02-28T11:05:37;12.80;;;7.30;;
4786;SDS011;62338;48.832;9.422;2023-02-28T11:07:39;9.87;;;7.00;;
4786;SDS011;62338;48.832;9.422;2023-02-28T11:09:56;10.13;;;7.20;;
4786;SDS011;62338;48.832;9.422;2023-02-28T11:11:59;8.83;;;6.37;;
4786;SDS011;62338;48.832;9.422;2023-02-28T11:14:05;11.07;;;7.10;;
4786;SDS011;62338;48.832;9.422;2023-02-28T11:16:08;9.93;;;6.80;;
4786;SDS011;62338;48.832;9.422;2023-02-28T11:20:36;9.60;;;6.20;;
4786;SDS011;62338;48.832;9.422;2023-02-28T11:22:43;11.53;;;6.47;;
4786;SDS011;62338;48.832;9.422;2023-02-28T11:24:48;11.30;;;6.23;;
4786;SDS011;62338;48.832;9.422;2023-02-28T11:26:55;11.53;;;7.53;;
4786;SDS011;62338;48.832;9.422;2023-02-28T11:29:02;8.97;;;6.70;;
4786;SDS011;62338;48.832;9.422;2023-02-28T11:33:51;12.57;;;7.20;;
4786;SDS011;62338;48.832;9.422;2023-02-28T11:35:46;9.20;;;5.90;;
4786;SDS011;62338;48.832;9.422;2023-02-28T11:37:50;9.83;;;7.20;;
4786;SDS011;62338;48.832;9.422;2023-02-28T11:39:52;11.70;;;7.77;;
4786;SDS011;62338;48.832;9.422;2023-02-28T11:46:24;12.40;;;7.60;;
4786;SDS011;62338;48.832;9.422;2023-02-28T11:50:59;11.60;;;7.20;;
4786;SDS011;62338;48.832;9.422;2023-02-28T11:53:16;9.30;;;6.40;;
4786;SDS011;62338;48.832;9.422;2023-02-28T11:55:27;12.97;;;7.87;;
4786;SDS011;62338;48.832;9.422;2023-02-28T12:14:22;10.87;;;7.17;;
4786;SDS011;62338;48.832;9.422;2023-02-28T12:16:47;11.00;;;7.50;;
4786;SDS011;62338;48.832;9.422;2023-02-28T12:21:10;11.37;;;7.50;;
4786;SDS011;62338;48.832;9.422;2023-02-28T12:28:03;12.93;;;7.40;;
4786;SDS011;62338;48.832;9.422;2023-02-28T12:30:22;10.63;;;7.00;;
4786;SDS011;62338;48.832;9.422;2023-02-28T12:32:35;10.50;;;7.10;;
4786;SDS011;62338;48.832;9.422;2023-02-28T12:36:47;11.60;;;7.50;;
4786;SDS011;62338;48.832;9.422;2023-02-28T12:38:53;11.77;;;8.13;;
4786;SDS011;62338;48.832;9.422;2023-02-28T12:41:00;14.10;;;8.77;;
4786;SDS011;62338;48.832;9.422;2023-02-28T12:43:12;10.07;;;6.63;;
4786;SDS011;62338;48.832;9.422;2023-02-28T12:45:21;9.90;;;7.10;;
4786;SDS011;62338;48.832;9.422;2023-02-28T12:47:26;10.20;;;7.83;;
4786;SDS011;62338;48.832;9.422;2023-02-28T12:49:30;10.37;;;6.77;;
4786;SDS011;62338;48.832;9.422;2023-02-28T12:51:35;13.83;;;7.37;;
4786;SDS011;62338;48.832;9.422;2023-02-28T12:53:48;11.30;;;7.80;;
4786;SDS011;62338;48.832;9.422;2023-02-28T13:00:49;11.20;;;7.27;;
4786;SDS011;62338;48.832;9.422;2023-02-28T13:03:21;10.03;;;7.70;;
4786;SDS011;62338;48.832;9.422;2023-02-28T13:08:17;13.10;;;7.53;;
4786;SDS011;62338;48.832;9.422;2023-02-28T13:10:24;12.70;;;7.57;;
4786;SDS011;62338;48.832;9.422;2023-02-28T13:12:47;13.00;;;7.60;;
4786;SDS011;62338;48.832;9.422;2023-02-28T13:15:04;9.13;;;7.27;;
4786;SDS011;62338;48.832;9.422;2023-02-28T13:19:10;9.30;;;7.23;;
4786;SDS011;62338;48.832;9.422;2023-02-28T13:21:23;12.20;;;7.40;;
4786;SDS011;62338;48.832;9.422;2023-02-28T13:25:53;11.90;;;7.37;;
4786;SDS011;62338;48.832;9.422;2023-02-28T13:27:55;12.53;;;7.40;;
4786;SDS011;62338;48.832;9.422;2023-02-28T13:29:58;10.50;;;7.13;;
4786;SDS011;62338;48.832;9.422;2023-02-28T13:34:13;12.50;;;7.67;;
4786;SDS011;62338;48.832;9.422;2023-02-28T13:38:42;9.33;;;6.60;;
4786;SDS011;62338;48.832;9.422;2023-02-28T13:40:46;10.20;;;7.80;;
4786;SDS011;62338;48.832;9.422;2023-02-28T13:42:48;12.13;;;7.23;;
4786;SDS011;62338;48.832;9.422;2023-02-28T13:51:28;10.20;;;6.57;;
4786;SDS011;62338;48.832;9.422;2023-02-28T13:54:01;10.47;;;7.00;;
4786;SDS011;62338;48.832;9.422;2023-02-28T13:56:34;10.53;;;7.13;;
4786;SDS011;62338;48.832;9.422;2023-02-28T13:59:06;13.80;;;8.10;;
4786;SDS011;62338;48.832;9.422;2023-02-28T14:01:43;10.77;;;7.40;;
4786;SDS011;62338;48.832;9.422;2023-02-28T14:06:37;9.67;;;7.53;;
4786;SDS011;62338;48.832;9.422;2023-02-28T14:08:44;10.33;;;6.90;;
4786;SDS011;62338;48.832;9.422;2023-02-28T14:11:04;12.27;;;8.07;;
4786;SDS011;62338;48.832;9.422;2023-02-28T14:17:35;15.37;;;10.67;;
4786;SDS011;62338;48.832;9.422;2023-02-28T14:19:38;10.87;;;7.20;;
4786;SDS011;62338;48.832;9.422;2023-02-28T14:29:09;9.97;;;6.90;;
4786;SDS011;62338;48.832;9.422;2023-02-28T14:31:29;13.23;;;7.57;;
4786;SDS011;62338;48.832;9.422;2023-02-28T14:38:27;11.07;;;7.90;;
4786;SDS011;62338;48.832;9.422;2023-02-28T14:40:33;13.40;;;8.80;;
4786;SDS011;62338;48.832;9.422;2023-02-28T14:42:37;18.63;;;8.83;;
4786;SDS011;62338;48.832;9.422;2023-02-28T14:44:42;11.50;;;6.90;;
4786;SDS011;62338;48.832;9.422;2023-02-28T14:48:59;9.40;;;7.70;;
4786;SDS011;62338;48.832;9.422;2023-02-28T14:51:01;11.67;;;8.63;;
4786;SDS011;62338;48.832;9.422;2023-02-28T14:53:03;11.87;;;8.03;;